Terminal Aerodrome Forecast
Issued by NWS Sioux Falls, SD

Home | Current Version | Previous Version | Text Only | Print | Product List | Glossary On
Versions: 1 2 3 4 5 6 7 8 9 10 11 12 13 14 15
000
FTUS43 KFSD 260526
TAFFSD
TAF
KFSD 260526Z 2606/2706 32005KT P6SM SCT040
     FM261000 32006KT P6SM BKN040
     FM262100 34012KT P6SM BKN040
     FM270200 01008KT P6SM SCT040=

USA.gov is the U.S. government's official web portal to all federal, state and local government web resources and services.